Swatara, MN

7:13 AM CST on February 01, 2015 (GMT -0600)
Grand Rapids-Itasca County-Newstrom Field | Change Station
CLOSE
Current Station
Airport
Location: Grand Rapids,
Elevation: 1355 ft
Nearby Weather Stations

Elev 1355 ft 47.21 °N, 93.51 °W | Updated 18 minutes ago

Overcast
Overcast
-8 °F
Feels Like -22 °F
N
7
Wind Variable Wind from North

Today
High -- | Low -- °F
--% Chance of Precip.
Yesterday
High -- | Low -- °F
Precip. -- in
7:39 AM 5:16 PM
Waxing Gibbous, 95% visible
Pressure 30.34 in
Visibility 10.0 miles
Clouds Overcast 2300 ft
Windchill -22 °F
Dew Point -17 °F
Humidity 65%
Rainfall 0.00 in
Snow Depth Not available.
UV 0 out of 12
Pollen .10 out of 12
Air Quality Not available.
Flu Activity Not available.
METAR KGPZ 011255Z AUTO 35006KT 10SM OVC023 M22/M27 A3034 RMK AO1

More Conditions Fewer Conditions

Pressure 30.34 in
Visibility 10.0 miles
Clouds Overcast 2300 ft
Windchill -22 °F
Dew Point -17 °F
Humidity 65%
Rainfall 0.00 in
Snow Depth Not available.
UV 0 out of 12
Pollen .10 out of 12
Air Quality Not available.
Flu Activity Not available.
METAR KGPZ 011255Z AUTO 35006KT 10SM OVC023 M22/M27 A3034 RMK AO1

More Conditions Fewer Conditions

10-Day Weather Forecast

Almanac

Astronomy

Feb. 01, 2015 Rise Set
Actual Time
Civil Twilight
Nautical Twilight
Astronomical Twilight
Moon
Length of Visible Light
Length of Day
Tomorrow will be .
, % of the Moon is Illuminated

Today's Extremes

State Highs State Lows

Community

WunderPhotos

Upload Photos

1,792,359 photos uploaded!

WunderBlogs® & News

Nearby

Air Quality

  Air Quality AQ Index Pollutant
Not available.

Snow Depth

Station Depth Elevation

Earthquake Activity

City Distance Mag. Time & Date
Minimum magnitude displayed is 2.5.

Coastal Water Temperatures

Place Temperature

Nearby Weather Stations